Time;durP1;ratioP1;P1;durP2;ratioP2;P2;SDS_P1;SDS_P2;PMS_P1;PMS_P2;Temp;Humidity;BMP_temperature;BMP_pressure;BME280_temperature;BME280_humidity;BME280_pressure;Samples;Min_cycle;Max_cycle;Signal;HPM_P1;HPM_P2
2023/03/31 00:01:13;;;;;;;23.30;20.90;;;;;;;8.44;93.82;97114.20;109613;1289;22206;-92
2023/03/31 00:03:42;;;;;;;23.10;19.90;;;;;;;8.42;94.18;97112.17;109737;1289;21980;-91
2023/03/31 00:06:16;;;;;;;25.90;23.10;;;;;;;8.41;94.03;97110.88;109822;1289;22210;-89
2023/03/31 00:08:50;;;;;;;24.50;22.20;;;;;;;8.38;94.32;97113.73;109694;1289;22243;-93
2023/03/31 00:11:20;;;;;;;23.60;21.10;;;;;;;8.34;93.96;97113.52;109678;1289;22198;-90
2023/03/31 00:13:49;;;;;;;24.20;21.70;;;;;;;8.34;94.21;97104.73;109618;1289;22731;-90
2023/03/31 00:16:17;;;;;;;24.70;22.20;;;;;;;8.33;94.86;97113.16;109726;1289;22301;-92
2023/03/31 00:18:46;;;;;;;25.80;23.50;;;;;;;8.33;94.67;97110.75;109375;1289;489430;-91
2023/03/31 00:21:32;;;;;;;26.40;24.00;;;;;;;8.30;94.54;97113.35;109830;1289;22162;-92
2023/03/31 00:24:03;;;;;;;25.50;22.90;;;;;;;8.27;94.38;97116.73;109746;1287;22218;-91
2023/03/31 00:26:33;;;;;;;24.90;22.40;;;;;;;8.25;94.78;97113.73;109928;1289;22226;-91
2023/03/31 00:29:02;;;;;;;23.80;21.40;;;;;;;8.28;95.05;97114.48;109917;1289;22143;-91
2023/03/31 00:31:31;;;;;;;24.80;22.60;;;;;;;8.27;95.01;97114.27;109918;1278;22199;-89
2023/03/31 00:33:59;;;;;;;26.30;23.20;;;;;;;8.23;94.72;97114.90;109916;1289;22202;-85
2023/03/31 00:36:27;;;;;;;23.90;21.70;;;;;;;8.19;95.00;97121.94;109934;1289;22136;-91
2023/03/31 00:39:08;;;;;;;23.80;21.30;;;;;;;8.19;94.79;97121.94;109909;1289;22121;-92
2023/03/31 00:41:37;;;;;;;23.90;21.60;;;;;;;8.21;95.18;97121.92;109942;1289;22211;-91
2023/03/31 00:44:21;;;;;;;22.70;20.50;;;;;;;8.21;95.21;97118.00;109841;1289;22758;-90
2023/03/31 00:47:01;;;;;;;22.00;20.00;;;;;;;8.18;95.43;97117.79;109784;1289;22513;-90
2023/03/31 00:49:33;;;;;;;21.60;19.40;;;;;;;8.14;94.95;97118.15;109679;1289;22942;-91
2023/03/31 00:52:08;;;;;;;22.70;20.50;;;;;;;8.16;95.41;97122.52;109667;1289;22237;-90
2023/03/31 00:54:37;;;;;;;22.10;19.90;;;;;;;8.18;95.55;97122.55;109683;1289;22151;-91
2023/03/31 00:57:06;;;;;;;23.60;21.20;;;;;;;8.19;95.24;97122.22;109583;1289;22296;-90
2023/03/31 00:59:41;;;;;;;23.80;21.50;;;;;;;8.16;95.33;97119.49;109700;1289;22274;-90
2023/03/31 01:02:12;;;;;;;21.40;19.30;;;;;;;8.15;95.24;97119.52;109577;1289;22185;-90
2023/03/31 01:04:45;;;;;;;23.50;21.30;;;;;;;8.17;95.43;97118.23;109666;1289;22263;-89
2023/03/31 01:07:24;;;;;;;22.40;20.50;;;;;;;8.17;94.76;97119.11;109672;1289;22195;-90
2023/03/31 01:09:58;;;;;;;22.40;20.30;;;;;;;8.18;95.33;97112.59;109673;1289;22258;-89
2023/03/31 01:12:26;;;;;;;24.70;22.20;;;;;;;8.17;94.93;97106.92;109596;1289;22296;-90
2023/03/31 01:14:54;;;;;;;24.50;22.20;;;;;;;8.15;94.78;97107.61;109685;1289;23255;-89
2023/03/31 01:17:23;;;;;;;22.20;20.20;;;;;;;8.14;94.62;97107.57;109601;1289;22690;-89
2023/03/31 01:19:55;;;;;;;21.80;19.70;;;;;;;8.15;94.69;97112.34;109579;1289;23048;-90
2023/03/31 01:22:36;;;;;;;22.10;19.90;;;;;;;8.17;94.98;97113.09;109585;1289;22281;-89
2023/03/31 01:25:32;;;;;;;24.90;22.60;;;;;;;8.16;94.93;97114.08;109700;1289;22202;-90
2023/03/31 01:28:18;;;;;;;23.90;21.80;;;;;;;8.13;94.69;97115.44;109667;1289;22208;-89
2023/03/31 01:30:59;;;;;;;23.80;21.50;;;;;;;8.13;94.90;97111.69;109722;1289;22319;-91
2023/03/31 01:34:00;;;;;;;24.70;22.30;;;;;;;8.15;95.02;97113.25;109696;1289;22789;-90
2023/03/31 01:36:41;;;;;;;25.20;23.10;;;;;;;8.11;94.72;97108.92;109716;1289;22126;-90
2023/03/31 01:39:34;;;;;;;24.50;22.30;;;;;;;8.09;94.45;97094.48;109750;1289;22154;-92
2023/03/31 01:42:20;;;;;;;25.20;22.60;;;;;;;8.08;94.47;97093.96;109718;1289;22290;-91
2023/03/31 01:44:57;;;;;;;22.90;20.80;;;;;;;8.10;94.57;97090.16;109806;1289;22228;-92
2023/03/31 01:50:47;;;;;;;27.20;24.70;;;;;;;8.13;94.43;97093.00;102464;1273;22471;31
2023/03/31 01:53:36;;;;;;;26.70;24.10;;;;;;;8.12;94.21;97098.08;109868;1289;22224;-91
2023/03/31 01:56:07;;;;;;;25.80;23.10;;;;;;;8.14;94.34;97102.80;109880;1289;22211;-92
2023/03/31 01:58:40;;;;;;;26.70;24.10;;;;;;;8.16;94.73;97097.06;109873;1289;22264;-91
2023/03/31 02:01:25;;;;;;;27.40;24.90;;;;;;;8.15;94.45;97097.73;109864;1264;22787;-92
2023/03/31 02:04:28;;;;;;;25.70;23.30;;;;;;;8.11;94.09;97096.27;109891;1266;22606;31
2023/03/31 02:07:16;;;;;;;22.40;20.30;;;;;;;8.12;94.20;97101.45;109413;1264;22209;-91
2023/03/31 02:09:49;;;;;;;24.00;21.70;;;;;;;8.15;94.19;97098.48;109759;1289;22334;-92
2023/03/31 02:12:23;;;;;;;24.30;21.90;;;;;;;8.15;94.36;97098.77;109674;1289;22150;-90
2023/03/31 02:14:53;;;;;;;23.70;21.60;;;;;;;8.13;94.01;97097.89;109757;1289;22285;-91
2023/03/31 02:17:29;;;;;;;24.30;22.00;;;;;;;8.13;94.32;97100.52;109782;1289;23048;-93
2023/03/31 02:20:04;;;;;;;22.80;20.80;;;;;;;8.15;93.98;97098.98;109678;1289;22227;-92
2023/03/31 02:22:49;;;;;;;22.60;20.50;;;;;;;8.17;94.22;97096.45;109774;1288;22229;-93
2023/03/31 02:25:21;;;;;;;24.00;21.90;;;;;;;8.19;94.22;97096.38;109801;1288;22207;-92
2023/03/31 02:27:57;;;;;;;22.40;20.30;;;;;;;8.16;93.95;97100.98;109925;1289;22717;-87
2023/03/31 02:33:30;;;;;;;22.10;20.10;;;;;;;8.15;94.29;97100.41;109749;1289;22193;-91
2023/03/31 02:35:59;;;;;;;22.80;20.10;;;;;;;8.17;94.19;97102.95;109714;1290;22267;-89
2023/03/31 02:38:32;;;;;;;23.00;20.80;;;;;;;8.13;93.94;97092.69;109751;1290;22203;-92
2023/03/31 02:41:00;;;;;;;21.40;19.10;;;;;;;8.12;93.72;97092.27;109697;1289;22459;-91
2023/03/31 02:43:28;;;;;;;19.60;17.80;;;;;;;8.13;93.68;97091.29;109663;1290;22034;-89
2023/03/31 02:45:56;;;;;;;19.00;16.90;;;;;;;8.13;93.85;97092.95;109533;1289;22169;-88
2023/03/31 02:48:29;;;;;;;19.20;17.20;;;;;;;8.13;93.78;97090.16;109617;1290;23067;-90
2023/03/31 02:51:10;;;;;;;18.70;16.90;;;;;;;8.12;93.64;97089.27;109556;1290;22923;-89
2023/03/31 02:54:15;;;;;;;17.20;15.60;;;;;;;8.10;93.47;97091.36;109505;1290;22209;-87
2023/03/31 02:57:01;;;;;;;19.00;16.60;;;;;;;8.11;93.76;97091.13;109258;1290;22271;-90
2023/03/31 02:59:50;;;;;;;19.20;17.40;;;;;;;8.11;93.99;97087.42;109562;1289;22807;-87
2023/03/31 03:02:57;;;;;;;20.70;18.20;;;;;;;8.09;93.57;97089.17;109586;1290;22084;-89
2023/03/31 03:05:57;;;;;;;17.70;16.10;;;;;;;8.07;93.79;97084.55;109259;1289;22256;-89
2023/03/31 03:09:09;;;;;;;15.90;14.40;;;;;;;8.08;93.89;97086.08;109690;1277;22215;-89
2023/03/31 03:12:09;;;;;;;16.90;15.30;;;;;;;8.09;93.79;97081.88;109539;1289;22170;-87
2023/03/31 03:14:51;;;;;;;17.30;15.70;;;;;;;8.09;93.49;97085.85;109572;1289;22263;-89
2023/03/31 03:17:35;;;;;;;17.10;15.30;;;;;;;8.08;93.08;97081.37;109600;1289;22247;-88
2023/03/31 03:20:07;;;;;;;20.20;15.90;;;;;;;8.08;93.39;97079.06;109678;1289;22151;-89
2023/03/31 03:22:36;;;;;;;18.30;16.40;;;;;;;8.07;93.58;97074.83;109693;1289;22252;-89
2023/03/31 03:25:10;;;;;;;17.30;15.40;;;;;;;8.06;93.68;97073.41;109701;1289;22798;-90
2023/03/31 03:27:39;;;;;;;16.30;14.70;;;;;;;8.03;93.36;97078.58;109540;1289;22294;-87
2023/03/31 03:30:09;;;;;;;13.50;12.30;;;;;;;8.03;92.98;97081.04;109676;1289;22317;-88
2023/03/31 03:32:38;;;;;;;14.30;13.00;;;;;;;8.03;93.40;97077.77;109731;1289;22307;-87
2023/03/31 03:35:06;;;;;;;14.20;12.90;;;;;;;8.07;93.26;97081.10;109676;1287;22211;-90
2023/03/31 03:37:34;;;;;;;13.90;12.60;;;;;;;8.08;93.40;97082.64;109686;1289;22228;-90
2023/03/31 03:40:04;;;;;;;15.20;13.80;;;;;;;8.08;93.02;97079.64;109680;1289;22280;-89
2023/03/31 03:42:34;;;;;;;13.40;12.00;;;;;;;8.06;93.00;97078.83;109703;1289;22929;-88
2023/03/31 03:45:02;;;;;;;13.90;12.60;;;;;;;8.05;93.21;97078.91;109702;1289;22396;-87
2023/03/31 03:47:30;;;;;;;13.80;12.40;;;;;;;8.06;93.12;97078.13;109690;1284;22222;-88
2023/03/31 03:49:58;;;;;;;13.10;11.80;;;;;;;8.09;92.98;97072.92;109608;1289;22228;-88
2023/03/31 03:52:26;;;;;;;13.30;12.10;;;;;;;8.08;92.83;97066.17;109883;1289;22175;-86
2023/03/31 03:54:55;;;;;;;14.70;13.30;;;;;;;8.07;92.97;97063.98;109882;1289;22084;-85
2023/03/31 03:57:22;;;;;;;14.60;13.20;;;;;;;8.05;92.83;97063.02;109857;1289;22113;-89
2023/03/31 03:59:50;;;;;;;15.10;13.60;;;;;;;8.04;92.70;97060.36;109664;1289;22255;-89
2023/03/31 04:02:18;;;;;;;14.10;12.60;;;;;;;8.02;92.96;97061.52;109728;1289;23056;-91
2023/03/31 04:04:46;;;;;;;13.80;12.50;;;;;;;8.03;93.03;97059.36;109746;1289;22188;-89
2023/03/31 04:07:15;;;;;;;14.10;12.80;;;;;;;8.00;92.82;97056.05;109745;1270;22191;-91
2023/03/31 04:09:43;;;;;;;14.80;13.40;;;;;;;7.97;92.56;97057.18;109724;1289;22265;-91
2023/03/31 04:12:11;;;;;;;13.30;12.10;;;;;;;7.94;92.69;97056.06;109730;1289;22230;-91
2023/03/31 04:14:39;;;;;;;18.30;16.30;;;;;;;7.93;92.33;97052.48;109576;1289;22228;-88
2023/03/31 04:17:09;;;;;;;13.50;12.20;;;;;;;7.94;92.67;97044.85;109585;1287;22235;-89
2023/03/31 04:24:21;;;;;;;17.50;14.40;;;;;;;7.89;92.74;97036.86;109892;1289;22264;-90
2023/03/31 04:26:49;;;;;;;17.20;15.00;;;;;;;7.86;92.43;97035.45;109761;1289;22838;-89
2023/03/31 04:29:21;;;;;;;12.70;11.40;;;;;;;7.86;92.43;97031.69;109623;1289;22342;-89
2023/03/31 04:31:57;;;;;;;15.10;13.50;;;;;;;7.88;92.43;97029.71;109766;1289;22182;-88
2023/03/31 04:34:33;;;;;;;15.00;12.50;;;;;;;7.88;92.83;97029.71;109699;1289;23095;-88
2023/03/31 04:37:02;;;;;;;14.20;12.90;;;;;;;7.86;92.63;97031.99;109557;1289;22224;-88
2023/03/31 04:39:30;;;;;;;17.10;12.20;;;;;;;7.85;92.41;97028.44;109695;1289;22852;-87
2023/03/31 04:41:59;;;;;;;12.90;11.70;;;;;;;7.85;92.56;97031.33;109410;1289;22223;-89
2023/03/31 04:44:28;;;;;;;12.80;11.50;;;;;;;7.88;92.71;97028.80;109738;1289;22093;-90
2023/03/31 04:46:57;;;;;;;13.10;11.80;;;;;;;7.87;92.50;97026.23;109724;1289;22684;-89
2023/03/31 04:49:25;;;;;;;13.60;12.20;;;;;;;7.87;92.67;97026.61;109709;1289;22922;-88
2023/03/31 04:51:54;;;;;;;13.80;12.20;;;;;;;7.85;92.36;97021.61;109447;1289;22303;-90
2023/03/31 04:54:22;;;;;;;13.60;12.10;;;;;;;7.86;92.57;97020.04;109710;1289;22237;-90
2023/03/31 04:56:50;;;;;;;12.40;11.30;;;;;;;7.87;92.45;97026.39;109536;1289;22294;-90
2023/03/31 04:59:18;;;;;;;14.70;13.20;;;;;;;7.89;92.66;97026.14;109562;1289;22458;-90
2023/03/31 05:01:46;;;;;;;15.40;13.50;;;;;;;7.88;92.78;97022.77;109577;1289;22124;-91
2023/03/31 05:04:15;;;;;;;15.70;14.30;;;;;;;7.84;92.79;97016.91;109694;1289;22216;-90
2023/03/31 05:06:42;;;;;;;16.10;13.50;;;;;;;7.85;92.44;97016.19;109693;1289;22807;-90
2023/03/31 05:09:11;;;;;;;15.80;13.50;;;;;;;7.86;92.38;97017.36;109783;1289;22120;-90
2023/03/31 05:11:39;;;;;;;16.10;14.40;;;;;;;7.88;92.75;97013.71;109895;1289;22129;-91
2023/03/31 05:14:07;;;;;;;16.40;14.90;;;;;;;7.89;92.47;97011.70;109882;1289;22251;-90
2023/03/31 05:16:35;;;;;;;19.20;16.40;;;;;;;7.90;92.37;97006.45;109712;1289;22124;-91
2023/03/31 05:19:03;;;;;;;16.90;15.10;;;;;;;7.91;92.35;97005.29;109585;1289;22271;-93
2023/03/31 05:21:31;;;;;;;16.70;15.00;;;;;;;7.95;92.56;97004.42;109720;1289;22107;-91
2023/03/31 05:23:59;;;;;;;17.00;15.40;;;;;;;8.02;92.54;97001.59;109564;1289;22360;-92
2023/03/31 05:26:27;;;;;;;14.70;13.30;;;;;;;8.07;92.04;96999.60;109551;1289;23053;-90
2023/03/31 05:28:56;;;;;;;18.70;16.80;;;;;;;8.10;92.46;97000.02;109612;1289;22299;-87
2023/03/31 05:31:24;;;;;;;22.70;20.60;;;;;;;8.11;92.33;96996.02;109466;1289;22202;-88
2023/03/31 05:33:52;;;;;;;17.20;15.60;;;;;;;8.15;92.29;96997.81;109748;1289;22237;-88
2023/03/31 05:36:22;;;;;;;17.30;15.70;;;;;;;8.20;92.23;96998.53;109533;1289;22985;-84
2023/03/31 05:38:51;;;;;;;19.10;17.40;;;;;;;8.27;92.20;96995.81;109663;1289;22206;-82
2023/03/31 05:41:19;;;;;;;20.80;18.90;;;;;;;8.32;91.76;96992.77;109659;1289;22231;-83
2023/03/31 05:43:48;;;;;;;16.10;14.50;;;;;;;8.38;91.83;96990.40;109678;1289;22287;-83
2023/03/31 05:46:17;;;;;;;23.10;19.00;;;;;;;8.39;91.72;96990.33;109695;1289;22196;-86
2023/03/31 05:48:45;;;;;;;45.40;34.10;;;;;;;8.44;91.59;96990.59;109671;1289;22292;-84
2023/03/31 05:51:13;;;;;;;29.40;26.20;;;;;;;8.47;91.73;96988.95;109741;1289;23157;-92
2023/03/31 05:53:41;;;;;;;13.70;12.30;;;;;;;8.55;91.91;96989.58;109760;1289;22243;-92
2023/03/31 05:56:09;;;;;;;17.20;13.20;;;;;;;8.68;91.18;96990.14;109722;1289;22230;-88
2023/03/31 05:58:37;;;;;;;15.00;13.50;;;;;;;8.69;90.39;96993.61;109643;1289;22187;-90
2023/03/31 06:01:11;;;;;;;20.00;18.20;;;;;;;8.69;90.47;96991.41;109672;1289;22255;-90
2023/03/31 06:03:40;;;;;;;11.60;10.40;;;;;;;8.74;90.51;96993.18;109697;1272;22478;-85
2023/03/31 06:06:09;;;;;;;16.50;14.70;;;;;;;8.75;90.29;96990.65;109808;1289;22084;-91
2023/03/31 06:08:37;;;;;;;18.70;16.70;;;;;;;8.76;89.41;96986.45;109721;1289;22189;-90
2023/03/31 06:11:07;;;;;;;13.00;11.60;;;;;;;8.76;89.87;96976.50;109684;1289;22776;-89
2023/03/31 06:13:37;;;;;;;14.70;13.30;;;;;;;8.84;89.34;96978.18;109579;1289;22220;-86
2023/03/31 06:16:06;;;;;;;15.50;13.10;;;;;;;8.89;89.26;96973.67;109688;1289;22671;-87
2023/03/31 06:18:35;;;;;;;10.10;9.00;;;;;;;8.94;88.79;96978.92;109704;1289;22095;-87
2023/03/31 06:21:04;;;;;;;18.70;16.70;;;;;;;8.95;87.95;96978.73;109707;1289;22208;-86
2023/03/31 06:23:33;;;;;;;15.50;13.90;;;;;;;8.94;88.25;96980.43;109686;1289;23081;-86
2023/03/31 06:26:07;;;;;;;15.60;11.20;;;;;;;9.00;88.38;96980.52;109598;1289;22167;-85
2023/03/31 06:28:35;;;;;;;40.10;21.60;;;;;;;9.07;88.60;96983.45;109745;1289;22268;-85
2023/03/31 06:31:06;;;;;;;24.60;14.40;;;;;;;9.13;87.78;96983.89;109790;1289;22108;-86
2023/03/31 06:33:35;;;;;;;12.10;8.00;;;;;;;9.18;87.76;96983.71;109453;1289;22208;-85
2023/03/31 06:36:05;;;;;;;12.90;9.40;;;;;;;9.22;86.91;96978.27;109533;1289;22248;-86
2023/03/31 06:38:35;;;;;;;11.50;8.70;;;;;;;9.30;86.97;96985.61;109706;1289;22132;-86
2023/03/31 06:41:05;;;;;;;8.60;7.10;;;;;;;9.37;86.40;96992.08;109531;1289;22206;-86
2023/03/31 06:43:33;;;;;;;12.30;6.90;;;;;;;9.37;85.59;96994.13;109701;1289;22822;-86
2023/03/31 06:46:02;;;;;;;10.10;7.60;;;;;;;9.35;85.79;96983.91;109665;1289;22304;-85
2023/03/31 06:48:30;;;;;;;13.80;7.90;;;;;;;9.40;85.93;96981.23;109677;1289;22223;-88
2023/03/31 06:51:00;;;;;;;10.30;7.00;;;;;;;9.47;86.56;96975.80;109664;1289;22289;-85
2023/03/31 06:53:28;;;;;;;14.40;11.90;;;;;;;9.53;85.97;96982.21;109518;1289;22198;-92
2023/03/31 06:55:56;;;;;;;12.00;10.30;;;;;;;9.55;85.92;96975.38;109672;1289;22910;-87
2023/03/31 06:58:24;;;;;;;17.00;10.40;;;;;;;9.58;85.77;96973.20;109687;1289;22337;-86
2023/03/31 07:00:53;;;;;;;17.60;9.70;;;;;;;9.66;85.13;96972.90;109690;1289;23753;-85
2023/03/31 07:03:23;;;;;;;14.60;11.20;;;;;;;9.72;85.48;96970.71;109521;1289;22186;-85
2023/03/31 07:05:53;;;;;;;30.20;26.70;;;;;;;9.79;85.16;96970.41;109654;1289;22311;-84
2023/03/31 07:08:22;;;;;;;15.50;9.80;;;;;;;9.87;84.32;96968.83;109688;1289;22205;-88
2023/03/31 07:10:56;;;;;;;14.80;11.70;;;;;;;9.93;83.34;96966.89;109560;1289;22250;-89
2023/03/31 07:13:26;;;;;;;18.20;9.30;;;;;;;9.99;83.08;96964.55;109416;1289;22796;-90
2023/03/31 07:15:55;;;;;;;16.70;10.50;;;;;;;10.11;83.45;96968.28;109508;1289;22673;-92
2023/03/31 07:18:24;;;;;;;19.50;14.60;;;;;;;10.22;82.79;96964.59;109561;1289;22215;-93
2023/03/31 07:20:53;;;;;;;15.50;10.50;;;;;;;10.31;82.32;96962.33;109715;1289;22272;-90
2023/03/31 07:23:21;;;;;;;13.80;12.40;;;;;;;10.36;82.01;96960.61;109764;1289;22138;-89
2023/03/31 07:25:49;;;;;;;17.50;15.70;;;;;;;10.42;81.57;96959.39;109798;1289;23045;-91
2023/03/31 07:28:17;;;;;;;13.50;10.70;;;;;;;10.52;82.06;96953.57;109828;1289;22210;-90
2023/03/31 07:30:45;;;;;;;17.80;13.70;;;;;;;10.67;82.46;96951.34;109742;1289;22221;-88
2023/03/31 07:33:13;;;;;;;21.60;19.00;;;;;;;10.79;81.65;96947.95;109692;1289;22254;-89
2023/03/31 07:35:41;;;;;;;16.90;11.80;;;;;;;10.90;80.44;96943.68;109715;1289;22230;-86
2023/03/31 07:38:10;;;;;;;15.20;13.20;;;;;;;10.98;79.37;96949.61;109505;1289;22277;-85
2023/03/31 07:40:40;;;;;;;8.30;6.00;;;;;;;11.01;78.91;96944.58;109578;1289;22809;-84
2023/03/31 07:43:08;;;;;;;8.00;5.50;;;;;;;11.07;78.53;96941.73;109706;1289;22893;-85
2023/03/31 07:45:39;;;;;;;11.60;6.50;;;;;;;11.15;79.17;96932.42;109686;1289;22284;-85
2023/03/31 07:48:07;;;;;;;11.50;6.10;;;;;;;11.30;78.76;96934.75;109679;1289;22288;-90
2023/03/31 07:50:35;;;;;;;11.30;7.80;;;;;;;11.36;77.43;96931.38;109679;1289;22245;-87
2023/03/31 07:53:07;;;;;;;11.10;7.80;;;;;;;11.45;77.17;96934.72;109501;1289;22253;-87
2023/03/31 07:55:35;;;;;;;9.80;7.40;;;;;;;11.59;76.88;96937.55;109680;1289;22289;-87
2023/03/31 07:58:03;;;;;;;11.40;7.40;;;;;;;11.72;76.15;96935.02;109669;1289;22888;-88
2023/03/31 08:00:31;;;;;;;10.90;7.50;;;;;;;11.81;75.70;96935.12;109730;1289;22273;-85
2023/03/31 08:02:59;;;;;;;11.10;6.70;;;;;;;11.92;75.43;96928.30;109721;1289;22226;-90
2023/03/31 08:05:27;;;;;;;14.00;7.40;;;;;;;11.97;74.63;96919.84;109728;1289;22942;-90
2023/03/31 08:07:56;;;;;;;12.70;7.60;;;;;;;12.01;74.01;96923.16;109540;1289;22191;-92
2023/03/31 08:10:26;;;;;;;10.60;6.70;;;;;;;12.03;74.08;96921.16;109557;1289;22676;-86
2023/03/31 08:12:54;;;;;;;7.90;4.80;;;;;;;12.09;73.18;96918.11;109728;1289;22202;-88
2023/03/31 08:15:23;;;;;;;12.60;5.90;;;;;;;12.08;73.01;96918.76;109694;1289;22239;-89
2023/03/31 08:17:51;;;;;;;9.60;5.50;;;;;;;12.10;72.43;96916.05;109692;1289;22294;-86
2023/03/31 08:20:19;;;;;;;9.20;4.90;;;;;;;12.05;72.09;96908.79;109726;1289;22217;-86
2023/03/31 08:22:47;;;;;;;10.70;6.20;;;;;;;12.01;71.91;96908.64;109685;1289;22226;-86
2023/03/31 08:25:16;;;;;;;15.80;7.60;;;;;;;11.98;72.49;96904.23;109607;1289;22383;-86
2023/03/31 08:27:45;;;;;;;10.60;6.40;;;;;;;12.04;73.22;96907.05;109669;1289;22254;-83
2023/03/31 08:30:13;;;;;;;13.60;5.90;;;;;;;12.04;72.73;96907.35;109650;1289;22312;-82
2023/03/31 08:32:41;;;;;;;11.70;6.30;;;;;;;12.07;72.44;96900.15;109651;1289;23202;-85
2023/03/31 08:35:10;;;;;;;12.30;8.00;;;;;;;12.10;71.83;96888.85;109672;1289;22218;-85
2023/03/31 08:37:38;;;;;;;12.30;7.20;;;;;;;12.15;71.92;96889.14;109494;1289;22987;-83
2023/03/31 08:40:17;;;;;;;12.10;6.80;;;;;;;12.22;71.90;96886.78;109670;1289;22244;-84
2023/03/31 08:42:49;;;;;;;14.90;7.20;;;;;;;12.34;72.30;96876.52;109479;1289;22950;-84
2023/03/31 08:45:23;;;;;;;11.10;5.70;;;;;;;12.52;71.59;96875.94;109679;1289;23018;-84
2023/03/31 08:48:18;;;;;;;8.30;5.20;;;;;;;12.61;70.92;96873.39;109671;1289;22194;-84
2023/03/31 08:50:49;;;;;;;;;;;;;;;12.59;70.51;96867.92;109693;1284;22344;-84
2023/03/31 08:53:42;;;;;;;8.90;4.80;;;;;;;12.61;70.47;96861.52;109672;1289;22276;-88
2023/03/31 08:56:21;;;;;;;12.00;5.50;;;;;;;12.64;70.22;96858.27;109695;1289;22665;-86
2023/03/31 08:58:50;;;;;;;11.70;5.40;;;;;;;12.67;70.63;96856.92;109696;1289;22239;-85
2023/03/31 09:01:43;;;;;;;15.70;7.60;;;;;;;12.74;70.72;96850.80;109700;1289;22790;-88
2023/03/31 09:04:32;;;;;;;9.70;6.30;;;;;;;12.79;69.71;96850.80;109662;1289;22958;-85
2023/03/31 09:07:14;;;;;;;14.10;8.70;;;;;;;12.75;69.58;96843.64;109454;1289;22198;-82
2023/03/31 09:10:01;;;;;;;14.80;10.30;;;;;;;12.81;69.96;96836.02;109653;1289;22334;-88
2023/03/31 09:12:46;;;;;;;18.60;15.50;;;;;;;12.88;69.38;96832.62;109648;1289;23035;-89
2023/03/31 09:15:23;;;;;;;;;;;;;;;12.89;69.04;96827.94;109575;1289;22363;-87
2023/03/31 09:17:54;;;;;;;22.50;14.40;;;;;;;12.97;69.72;96824.02;109678;1289;23023;-88
2023/03/31 09:20:30;;;;;;;19.80;13.60;;;;;;;13.23;69.07;96819.14;109580;1289;22318;-88
2023/03/31 09:23:22;;;;;;;15.70;11.40;;;;;;;13.45;68.13;96813.62;109561;1289;22285;-90
2023/03/31 09:25:50;;;;;;;12.00;7.10;;;;;;;13.64;68.03;96809.42;109652;1289;22171;-89
2023/03/31 09:28:21;;;;;;;8.20;4.60;;;;;;;13.77;66.28;96805.11;109731;1289;22203;-89
2023/03/31 09:30:49;;;;;;;9.50;4.10;;;;;;;13.78;64.89;96805.63;109468;1289;22244;-88
2023/03/31 09:33:18;;;;;;;8.70;3.70;;;;;;;13.71;64.77;96803.91;109676;1289;22222;-85
2023/03/31 09:35:46;;;;;;;10.80;4.00;;;;;;;13.75;64.41;96800.42;109661;1289;22242;-85
2023/03/31 09:38:18;;;;;;;10.30;5.50;;;;;;;13.79;64.22;96801.63;109647;1289;22263;-87
2023/03/31 09:40:46;;;;;;;9.40;5.10;;;;;;;13.81;63.63;96796.41;109455;1289;22275;-89
2023/03/31 09:43:22;;;;;;;10.30;6.60;;;;;;;13.76;63.31;96793.03;109694;1289;22300;-88
2023/03/31 09:45:51;;;;;;;12.20;5.80;;;;;;;13.78;64.14;96788.77;109647;1289;22840;-88
2023/03/31 09:48:37;;;;;;;8.80;4.50;;;;;;;13.96;64.48;96778.80;109673;1289;22960;-89
2023/03/31 09:51:13;;;;;;;11.50;6.80;;;;;;;14.17;64.22;96771.48;109679;1289;22288;-88
2023/03/31 09:53:59;;;;;;;10.80;6.20;;;;;;;14.33;63.03;96770.56;109660;1289;23028;-87
2023/03/31 09:56:54;;;;;;;10.60;5.20;;;;;;;14.35;62.16;96772.23;109655;1289;22851;-88
2023/03/31 09:59:33;;;;;;;11.10;4.50;;;;;;;14.32;61.72;96759.71;109584;1289;22281;-89
2023/03/31 10:02:19;;;;;;;7.20;4.00;;;;;;;14.29;62.17;96760.96;109643;1289;22278;-90
2023/03/31 10:04:47;;;;;;;9.00;4.70;;;;;;;14.24;60.97;96750.84;109651;1289;22256;-92
2023/03/31 10:07:21;;;;;;;8.70;5.20;;;;;;;14.20;62.19;96745.02;109685;1289;22197;-91
2023/03/31 10:09:52;;;;;;;7.80;4.60;;;;;;;14.24;60.63;96746.59;109669;1289;22163;-90
2023/03/31 10:12:25;;;;;;;9.80;4.50;;;;;;;14.21;60.35;96746.11;109539;1289;22925;-89
2023/03/31 10:15:01;;;;;;;7.70;4.50;;;;;;;14.14;61.72;96739.67;109489;1289;22079;-88
2023/03/31 10:17:31;;;;;;;9.90;5.30;;;;;;;14.18;61.20;96736.23;109674;1289;22199;-85
2023/03/31 10:20:35;;;;;;;11.00;5.90;;;;;;;14.10;60.79;96735.96;109910;1289;22164;-84
2023/03/31 10:23:26;;;;;;;9.10;4.60;;;;;;;14.20;61.04;96730.67;109898;1289;22236;-91
2023/03/31 10:25:54;;;;;;;9.80;5.20;;;;;;;14.43;60.87;96724.65;109728;1289;22257;-90
2023/03/31 10:28:23;;;;;;;9.80;4.70;;;;;;;14.54;61.28;96727.10;109701;1289;22241;-87
2023/03/31 10:31:00;;;;;;;8.50;4.90;;;;;;;14.60;61.70;96726.08;109649;1289;22482;-87
2023/03/31 10:33:33;;;;;;;9.00;4.70;;;;;;;14.73;62.13;96721.27;109625;1289;22896;-87
2023/03/31 10:36:08;;;;;;;11.50;4.20;;;;;;;14.72;61.28;96716.73;109650;1289;22147;-89
2023/03/31 10:38:42;;;;;;;9.50;5.10;;;;;;;14.61;61.15;96717.71;109652;1289;22209;-85
2023/03/31 10:41:11;;;;;;;19.70;4.90;;;;;;;14.51;59.44;96724.30;109655;1289;22951;-88
2023/03/31 10:43:41;;;;;;;10.30;4.40;;;;;;;14.36;58.98;96719.85;109546;1289;22166;-88
2023/03/31 10:46:11;;;;;;;11.90;5.00;;;;;;;14.24;59.08;96717.56;109650;1289;22196;-88
2023/03/31 10:48:41;;;;;;;8.50;5.00;;;;;;;14.14;59.15;96711.98;109653;1289;22193;-88
2023/03/31 10:51:24;;;;;;;8.60;3.60;;;;;;;14.05;59.03;96726.30;109483;1289;22246;-88
2023/03/31 10:53:54;;;;;;;10.10;4.40;;;;;;;13.89;59.29;96725.85;109639;1289;22235;-88
2023/03/31 10:56:43;;;;;;;9.20;5.20;;;;;;;13.80;59.72;96725.63;109641;1289;22201;-86
2023/03/31 10:59:33;;;;;;;9.40;5.00;;;;;;;13.71;59.84;96727.09;109639;1289;22318;-86
2023/03/31 11:02:19;;;;;;;9.10;5.60;;;;;;;13.65;60.25;96722.67;109633;1289;22239;-89
2023/03/31 11:05:12;;;;;;;11.90;5.90;;;;;;;13.64;60.63;96718.71;109506;1289;22239;-91
2023/03/31 11:07:58;;;;;;;11.30;5.10;;;;;;;13.70;60.60;96717.69;109650;1289;22410;-90
2023/03/31 11:10:41;;;;;;;8.20;4.30;;;;;;;13.74;60.60;96712.98;109654;1289;22197;-88
2023/03/31 11:13:24;;;;;;;12.60;7.10;;;;;;;13.78;60.42;96703.75;109620;1289;22287;-89
2023/03/31 11:16:14;;;;;;;11.70;6.00;;;;;;;13.77;60.38;96702.27;109512;1289;22173;-90
2023/03/31 11:18:48;;;;;;;19.80;11.50;;;;;;;13.75;60.51;96693.85;109650;1289;22345;-91
2023/03/31 11:21:19;;;;;;;16.00;8.40;;;;;;;13.78;60.59;96691.29;109729;1285;22212;-89
2023/03/31 11:24:12;;;;;;;50.20;22.30;;;;;;;13.87;60.77;96691.84;109667;1289;23191;-92
2023/03/31 11:26:56;;;;;;;23.00;15.00;;;;;;;13.95;60.71;96687.13;109727;1289;22252;-88
2023/03/31 11:29:30;;;;;;;18.90;14.70;;;;;;;13.97;60.69;96680.23;109793;1289;22192;-88
2023/03/31 11:32:23;;;;;;;13.40;10.60;;;;;;;14.01;60.88;96676.31;109845;1289;22964;-89
2023/03/31 11:35:43;;;;;;;11.60;8.30;;;;;;;14.07;60.57;96673.81;109838;1289;22190;-91
2023/03/31 11:38:20;;;;;;;15.60;12.00;;;;;;;14.04;59.91;96666.30;109704;1289;22169;-91
2023/03/31 11:45:17;;;;;;;13.80;10.10;;;;;;;14.05;60.13;96654.27;109889;1289;22143;-92
2023/03/31 11:48:16;;;;;;;13.10;10.60;;;;;;;14.06;60.15;96651.97;109831;1289;22145;-90
2023/03/31 11:50:47;;;;;;;12.20;7.90;;;;;;;14.02;60.54;96643.52;109745;1289;23297;-91
2023/03/31 11:53:19;;;;;;;13.90;10.40;;;;;;;14.02;60.52;96637.02;109737;1289;22407;-91
2023/03/31 11:55:51;;;;;;;12.80;10.00;;;;;;;14.01;60.70;96638.09;109797;1289;22215;-89
2023/03/31 11:58:42;;;;;;;16.60;12.40;;;;;;;13.99;60.80;96633.08;109693;1284;22165;-89
2023/03/31 12:01:22;;;;;;;18.10;10.70;;;;;;;13.99;61.02;96633.85;109592;1289;22254;-88
2023/03/31 12:03:56;;;;;;;12.60;8.50;;;;;;;14.03;61.24;96622.02;109658;1289;22200;-87
2023/03/31 12:06:29;;;;;;;11.40;7.00;;;;;;;14.07;61.42;96616.56;109727;1289;22674;-89